sensor_id;sensor_type;location;lat;lon;timestamp;P1;durP1;ratioP1;P2;durP2;ratioP2
57329;SDS011;43163;51.032;18.280;2023-04-28T00:06:28;7.80;;;5.00;;
57329;SDS011;43163;51.032;18.280;2023-04-28T00:16:17;14.60;;;7.10;;
57329;SDS011;43163;51.032;18.280;2023-04-28T00:26:06;5.80;;;4.30;;
57329;SDS011;43163;51.032;18.280;2023-04-28T00:36:07;10.70;;;6.80;;
57329;SDS011;43163;51.032;18.280;2023-04-28T00:45:56;11.40;;;6.50;;
57329;SDS011;43163;51.032;18.280;2023-04-28T00:55:45;8.80;;;5.60;;
57329;SDS011;43163;51.032;18.280;2023-04-28T01:05:34;7.50;;;4.70;;
57329;SDS011;43163;51.032;18.280;2023-04-28T01:15:24;12.10;;;5.50;;
57329;SDS011;43163;51.032;18.280;2023-04-28T01:25:14;11.80;;;5.80;;
57329;SDS011;43163;51.032;18.280;2023-04-28T01:35:03;5.80;;;4.20;;
57329;SDS011;43163;51.032;18.280;2023-04-28T01:44:53;9.00;;;5.50;;
57329;SDS011;43163;51.032;18.280;2023-04-28T01:54:45;7.70;;;5.20;;
57329;SDS011;43163;51.032;18.280;2023-04-28T02:04:36;8.30;;;5.10;;
57329;SDS011;43163;51.032;18.280;2023-04-28T02:14:29;6.80;;;5.30;;
57329;SDS011;43163;51.032;18.280;2023-04-28T02:24:19;2.00;;;1.70;;
57329;SDS011;43163;51.032;18.280;2023-04-28T02:34:09;8.80;;;5.50;;
57329;SDS011;43163;51.032;18.280;2023-04-28T02:44:00;9.60;;;6.90;;
57329;SDS011;43163;51.032;18.280;2023-04-28T02:53:49;9.00;;;6.40;;
57329;SDS011;43163;51.032;18.280;2023-04-28T03:03:39;13.40;;;5.90;;
57329;SDS011;43163;51.032;18.280;2023-04-28T03:13:29;7.80;;;4.40;;
57329;SDS011;43163;51.032;18.280;2023-04-28T03:23:17;10.10;;;5.60;;
57329;SDS011;43163;51.032;18.280;2023-04-28T03:33:07;5.30;;;4.60;;
57329;SDS011;43163;51.032;18.280;2023-04-28T03:42:55;9.00;;;5.40;;
57329;SDS011;43163;51.032;18.280;2023-04-28T03:52:45;7.30;;;4.70;;
57329;SDS011;43163;51.032;18.280;2023-04-28T04:02:36;10.20;;;6.30;;
57329;SDS011;43163;51.032;18.280;2023-04-28T04:12:25;9.20;;;6.50;;
57329;SDS011;43163;51.032;18.280;2023-04-28T04:22:19;18.00;;;8.40;;
57329;SDS011;43163;51.032;18.280;2023-04-28T04:32:08;6.50;;;5.50;;
57329;SDS011;43163;51.032;18.280;2023-04-28T05:26:05;14.20;;;7.90;;
57329;SDS011;43163;51.032;18.280;2023-04-28T05:35:57;19.70;;;11.30;;
57329;SDS011;43163;51.032;18.280;2023-04-28T05:45:48;11.80;;;7.80;;
57329;SDS011;43163;51.032;18.280;2023-04-28T05:55:39;18.10;;;11.00;;
57329;SDS011;43163;51.032;18.280;2023-04-28T06:05:31;21.70;;;11.20;;
57329;SDS011;43163;51.032;18.280;2023-04-28T06:15:22;17.70;;;10.40;;
57329;SDS011;43163;51.032;18.280;2023-04-28T06:25:16;18.30;;;12.80;;
57329;SDS011;43163;51.032;18.280;2023-04-28T06:35:13;8.80;;;6.20;;
57329;SDS011;43163;51.032;18.280;2023-04-28T06:45:05;24.20;;;13.00;;
57329;SDS011;43163;51.032;18.280;2023-04-28T06:54:57;24.00;;;11.70;;
57329;SDS011;43163;51.032;18.280;2023-04-28T07:04:49;17.90;;;10.30;;
57329;SDS011;43163;51.032;18.280;2023-04-28T07:14:40;18.50;;;11.10;;
57329;SDS011;43163;51.032;18.280;2023-04-28T07:24:32;17.70;;;10.20;;
57329;SDS011;43163;51.032;18.280;2023-04-28T07:34:28;15.20;;;9.60;;
57329;SDS011;43163;51.032;18.280;2023-04-28T07:44:20;13.20;;;9.50;;
57329;SDS011;43163;51.032;18.280;2023-04-28T07:54:10;12.60;;;8.20;;
57329;SDS011;43163;51.032;18.280;2023-04-28T08:04:09;9.80;;;6.80;;
57329;SDS011;43163;51.032;18.280;2023-04-28T08:14:01;15.10;;;8.00;;
57329;SDS011;43163;51.032;18.280;2023-04-28T08:23:53;10.90;;;6.70;;
57329;SDS011;43163;51.032;18.280;2023-04-28T08:33:45;12.50;;;6.60;;
57329;SDS011;43163;51.032;18.280;2023-04-28T08:43:41;15.20;;;7.70;;
57329;SDS011;43163;51.032;18.280;2023-04-28T08:53:37;18.40;;;5.90;;
57329;SDS011;43163;51.032;18.280;2023-04-28T09:03:30;8.50;;;5.50;;
57329;SDS011;43163;51.032;18.280;2023-04-28T09:13:35;12.50;;;6.00;;
57329;SDS011;43163;51.032;18.280;2023-04-28T09:23:33;11.10;;;5.10;;
57329;SDS011;43163;51.032;18.280;2023-04-28T09:33:29;8.00;;;6.60;;
57329;SDS011;43163;51.032;18.280;2023-04-28T09:43:30;4.10;;;3.40;;
57329;SDS011;43163;51.032;18.280;2023-04-28T09:53:30;15.70;;;8.20;;
57329;SDS011;43163;51.032;18.280;2023-04-28T10:03:28;6.20;;;4.60;;
57329;SDS011;43163;51.032;18.280;2023-04-28T10:13:25;4.10;;;3.00;;
57329;SDS011;43163;51.032;18.280;2023-04-28T10:23:36;7.90;;;5.00;;
57329;SDS011;43163;51.032;18.280;2023-04-28T10:34:19;5.70;;;3.40;;
57329;SDS011;43163;51.032;18.280;2023-04-28T11:29:51;8.20;;;3.40;;
57329;SDS011;43163;51.032;18.280;2023-04-28T11:39:53;8.10;;;2.90;;
57329;SDS011;43163;51.032;18.280;2023-04-28T11:49:59;3.50;;;2.70;;
57329;SDS011;43163;51.032;18.280;2023-04-28T12:00:16;4.30;;;3.00;;
57329;SDS011;43163;51.032;18.280;2023-04-28T12:10:15;2.60;;;2.40;;
57329;SDS011;43163;51.032;18.280;2023-04-28T12:20:32;1.20;;;1.10;;
57329;SDS011;43163;51.032;18.280;2023-04-28T12:30:38;3.80;;;2.10;;
57329;SDS011;43163;51.032;18.280;2023-04-28T12:40:50;9.60;;;3.60;;
57329;SDS011;43163;51.032;18.280;2023-04-28T12:50:54;5.80;;;3.60;;
57329;SDS011;43163;51.032;18.280;2023-04-28T13:00:45;10.00;;;1.70;;
57329;SDS011;43163;51.032;18.280;2023-04-28T13:10:41;3.10;;;2.80;;
57329;SDS011;43163;51.032;18.280;2023-04-28T13:20:33;8.50;;;2.20;;
57329;SDS011;43163;51.032;18.280;2023-04-28T13:30:27;3.40;;;2.40;;
57329;SDS011;43163;51.032;18.280;2023-04-28T13:40:23;2.90;;;2.50;;
57329;SDS011;43163;51.032;18.280;2023-04-28T13:50:15;2.60;;;2.20;;
57329;SDS011;43163;51.032;18.280;2023-04-28T14:00:05;2.30;;;1.90;;
57329;SDS011;43163;51.032;18.280;2023-04-28T14:09:57;3.20;;;1.70;;
57329;SDS011;43163;51.032;18.280;2023-04-28T14:19:50;3.80;;;2.40;;
57329;SDS011;43163;51.032;18.280;2023-04-28T14:29:41;0.90;;;0.90;;
57329;SDS011;43163;51.032;18.280;2023-04-28T14:39:35;3.20;;;1.50;;
57329;SDS011;43163;51.032;18.280;2023-04-28T14:49:29;5.50;;;2.50;;
57329;SDS011;43163;51.032;18.280;2023-04-28T14:59:21;2.00;;;1.70;;
57329;SDS011;43163;51.032;18.280;2023-04-28T15:09:13;3.80;;;2.80;;
57329;SDS011;43163;51.032;18.280;2023-04-28T15:19:07;3.90;;;2.70;;
57329;SDS011;43163;51.032;18.280;2023-04-28T15:29:05;3.20;;;2.90;;
57329;SDS011;43163;51.032;18.280;2023-04-28T15:39:12;3.30;;;2.60;;
57329;SDS011;43163;51.032;18.280;2023-04-28T15:49:09;2.10;;;1.70;;
57329;SDS011;43163;51.032;18.280;2023-04-28T15:59:01;3.30;;;2.20;;
57329;SDS011;43163;51.032;18.280;2023-04-28T16:08:53;5.80;;;2.40;;
57329;SDS011;43163;51.032;18.280;2023-04-28T16:18:45;5.00;;;2.50;;
57329;SDS011;43163;51.032;18.280;2023-04-28T16:28:44;4.90;;;2.60;;
57329;SDS011;43163;51.032;18.280;2023-04-28T17:27:11;13.00;;;7.60;;
57329;SDS011;43163;51.032;18.280;2023-04-28T17:37:03;5.90;;;4.60;;
57329;SDS011;43163;51.032;18.280;2023-04-28T17:46:56;3.80;;;3.50;;
57329;SDS011;43163;51.032;18.280;2023-04-28T17:56:48;15.40;;;9.10;;
57329;SDS011;43163;51.032;18.280;2023-04-28T18:06:39;7.50;;;6.20;;
57329;SDS011;43163;51.032;18.280;2023-04-28T18:16:29;10.60;;;5.50;;
57329;SDS011;43163;51.032;18.280;2023-04-28T18:26:22;13.80;;;8.60;;
57329;SDS011;43163;51.032;18.280;2023-04-28T18:36:14;6.70;;;4.40;;
57329;SDS011;43163;51.032;18.280;2023-04-28T18:46:10;8.70;;;4.70;;
57329;SDS011;43163;51.032;18.280;2023-04-28T18:56:01;4.20;;;3.80;;
57329;SDS011;43163;51.032;18.280;2023-04-28T19:05:53;5.80;;;3.30;;
57329;SDS011;43163;51.032;18.280;2023-04-28T19:15:44;3.40;;;2.50;;
57329;SDS011;43163;51.032;18.280;2023-04-28T19:25:36;3.50;;;3.20;;
57329;SDS011;43163;51.032;18.280;2023-04-28T19:35:28;8.10;;;5.50;;
57329;SDS011;43163;51.032;18.280;2023-04-28T19:45:21;4.40;;;4.00;;
57329;SDS011;43163;51.032;18.280;2023-04-28T19:55:13;5.20;;;4.10;;
57329;SDS011;43163;51.032;18.280;2023-04-28T20:05:10;3.80;;;3.40;;
57329;SDS011;43163;51.032;18.280;2023-04-28T20:15:02;10.30;;;3.80;;
57329;SDS011;43163;51.032;18.280;2023-04-28T20:24:54;10.60;;;4.60;;
57329;SDS011;43163;51.032;18.280;2023-04-28T20:42:16;12.80;;;4.50;;
57329;SDS011;43163;51.032;18.280;2023-04-28T20:52:09;16.70;;;2.80;;
57329;SDS011;43163;51.032;18.280;2023-04-28T21:02:05;7.40;;;4.00;;
57329;SDS011;43163;51.032;18.280;2023-04-28T21:11:57;7.10;;;5.20;;
57329;SDS011;43163;51.032;18.280;2023-04-28T21:21:48;9.80;;;4.10;;
57329;SDS011;43163;51.032;18.280;2023-04-28T21:31:40;9.00;;;3.60;;
57329;SDS011;43163;51.032;18.280;2023-04-28T21:41:32;10.40;;;6.00;;
57329;SDS011;43163;51.032;18.280;2023-04-28T21:51:23;4.70;;;4.30;;
57329;SDS011;43163;51.032;18.280;2023-04-28T22:01:15;14.20;;;5.10;;
57329;SDS011;43163;51.032;18.280;2023-04-28T22:11:07;6.20;;;4.60;;
57329;SDS011;43163;51.032;18.280;2023-04-28T22:20:59;16.80;;;5.90;;
57329;SDS011;43163;51.032;18.280;2023-04-28T22:30:52;7.10;;;5.30;;
57329;SDS011;43163;51.032;18.280;2023-04-28T23:27:30;13.80;;;7.70;;
57329;SDS011;43163;51.032;18.280;2023-04-28T23:37:21;11.30;;;8.30;;
57329;SDS011;43163;51.032;18.280;2023-04-28T23:47:10;12.30;;;8.70;;
57329;SDS011;43163;51.032;18.280;2023-04-28T23:57:04;14.20;;;7.70;;
